createdAt,value
2018-12-24T00:02:25.086Z,100100.61
2018-12-24T00:04:54.941Z,100094.68
2018-12-24T00:07:24.939Z,100095.36
2018-12-24T00:09:54.879Z,100100.95
2018-12-24T00:12:24.717Z,100102.11
2018-12-24T00:14:54.687Z,100098.64
2018-12-24T00:17:24.535Z,100102.44
2018-12-24T00:19:54.367Z,100103.59
2018-12-24T00:22:24.567Z,100107.36
2018-12-24T00:24:54.506Z,100100.35
2018-12-24T00:27:24.316Z,100099.41
2018-12-24T00:29:54.411Z,100099.86
2018-12-24T00:32:24.380Z,100094.66
2018-12-24T00:34:54.298Z,100092.25
2018-12-24T00:37:24.395Z,100088.41
2018-12-24T00:39:54.223Z,100094.05
2018-12-24T00:42:24.154Z,100084.27
2018-12-24T00:44:54.355Z,100087.63
2018-12-24T00:47:24.174Z,100086.60
2018-12-24T00:49:53.975Z,100077.84
2018-12-24T00:52:24.170Z,100082.84
2018-12-24T00:54:53.995Z,100072.41
2018-12-24T00:57:23.905Z,100068.64
2018-12-24T00:59:54.082Z,100066.55
2018-12-24T01:02:23.947Z,100063.08
2018-12-24T01:04:53.784Z,100046.87
2018-12-24T01:07:23.986Z,100039.66
2018-12-24T01:09:53.924Z,100034.44
2018-12-24T01:12:24.656Z,100027.15
2018-12-24T01:14:55.113Z,100022.41
2018-12-24T01:17:25.036Z,100020.47
2018-12-24T01:19:55.057Z,100018.95
2018-12-24T01:22:25.090Z,100014.98
2018-12-24T01:24:54.912Z,100010.32
2018-12-24T01:27:24.834Z,100007.13
2018-12-24T01:29:55.049Z,99997.91
2018-12-24T01:32:24.865Z,99990.09
2018-12-24T01:34:54.781Z,99988.97
2018-12-24T01:37:24.837Z,99982.46
2018-12-24T01:39:54.660Z,99980.88
2018-12-24T01:42:33.219Z,99975.81
2018-12-24T01:44:56.295Z,99969.67
2018-12-24T01:47:26.123Z,99966.95
2018-12-24T01:49:56.035Z,99966.67
2018-12-24T01:52:26.169Z,99964.80
2018-12-24T01:54:56.094Z,99949.89
2018-12-24T01:57:25.921Z,99941.44
2018-12-24T01:59:55.937Z,99932.22
2018-12-24T02:02:25.947Z,99933.63
2018-12-24T02:04:55.883Z,99933.80
2018-12-24T02:07:25.759Z,99926.05
2018-12-24T02:09:55.594Z,99921.62
2018-12-24T02:12:25.518Z,99909.36
2018-12-24T02:14:55.607Z,99900.70
2018-12-24T02:17:25.523Z,99891.31
2018-12-24T02:19:55.419Z,99882.41
2018-12-24T02:22:25.288Z,99876.21
2018-12-24T02:24:55.118Z,99867.98
2018-12-24T02:27:25.054Z,99859.56
2018-12-24T02:29:55.287Z,99851.39
2018-12-24T02:33:05.437Z,99855.02
2018-12-24T02:35:34.820Z,99851.91
2018-12-24T02:38:04.235Z,99842.44
2018-12-24T02:40:34.019Z,99833.37
2018-12-24T02:43:03.474Z,99834.80
2018-12-24T02:45:32.899Z,99834.59
2018-12-24T02:48:03.070Z,99835.81
2018-12-24T02:50:32.574Z,99833.03
2018-12-24T02:53:02.075Z,99829.38
2018-12-24T02:55:31.727Z,99833.34
2018-12-24T02:58:01.129Z,99827.48
2018-12-24T03:00:30.610Z,99820.70
2018-12-24T03:03:00.814Z,99812.12
2018-12-24T03:05:30.215Z,99803.05
2018-12-24T03:07:59.632Z,99805.30
2018-12-24T03:10:29.382Z,99803.00
2018-12-24T03:13:02.955Z,99797.56
2018-12-24T03:15:29.979Z,99788.95
2018-12-24T03:17:59.495Z,99780.24
2018-12-24T03:20:28.900Z,99769.98
2018-12-24T03:22:58.369Z,99774.84
2018-12-24T03:25:28.118Z,99770.66
2018-12-24T03:27:57.624Z,99768.22
2018-12-24T03:30:27.018Z,99759.39
2018-12-24T03:32:56.466Z,99755.34
2018-12-24T03:35:25.990Z,99757.52
2018-12-24T03:37:55.478Z,99749.77
2018-12-24T03:40:25.251Z,99746.45
2018-12-24T03:42:54.649Z,99749.37
2018-12-24T03:45:24.169Z,99739.17
2018-12-24T03:47:53.855Z,99726.91
2018-12-24T03:50:23.548Z,99720.63
2018-12-24T03:52:53.041Z,99716.75
2018-12-24T03:55:22.694Z,99714.13
2018-12-24T03:57:52.094Z,99725.13
2018-12-24T04:00:21.586Z,99724.29
2018-12-24T04:02:51.239Z,99727.08
2018-12-24T04:05:20.637Z,99729.51
2018-12-24T04:07:50.041Z,99726.16
2018-12-24T04:10:19.558Z,99719.42
2018-12-24T04:12:49.071Z,99716.02
2018-12-24T04:15:18.502Z,99716.68
2018-12-24T04:17:48.200Z,99712.45
2018-12-24T04:20:17.700Z,99726.91
2018-12-24T04:22:47.207Z,99731.66
2018-12-24T04:25:16.773Z,99718.53
2018-12-24T04:27:46.204Z,99727.19
2018-12-24T04:30:15.698Z,99734.83
2018-12-24T04:32:45.301Z,99734.08
2018-12-24T04:35:14.808Z,99721.75
2018-12-24T04:37:44.300Z,99711.27
2018-12-24T04:40:14.012Z,99701.67
2018-12-24T04:42:43.428Z,99696.17
2018-12-24T04:45:12.927Z,99694.48
2018-12-24T04:47:42.444Z,99681.84
2018-12-24T04:50:11.844Z,99683.97
2018-12-24T04:52:41.635Z,99680.20
2018-12-24T04:55:11.451Z,99672.39
2018-12-24T04:57:40.917Z,99664.63
2018-12-24T05:00:10.327Z,99655.64
2018-12-24T05:02:39.766Z,99653.02
2018-12-24T05:05:09.256Z,99638.77
2018-12-24T05:07:38.738Z,99636.77
2018-12-24T05:10:08.392Z,99626.85
2018-12-24T05:12:37.814Z,99630.78
2018-12-24T05:15:07.307Z,99625.70
2018-12-24T05:17:36.961Z,99626.95
2018-12-24T05:20:06.386Z,99625.58
2018-12-24T05:22:35.863Z,99618.05
2018-12-24T05:25:05.718Z,99613.50
2018-12-24T05:27:35.208Z,99608.88
2018-12-24T05:30:04.686Z,99602.53
2018-12-24T05:32:34.113Z,99594.70
2018-12-24T05:35:03.736Z,99583.19
2018-12-24T05:37:33.282Z,99577.38
2018-12-24T05:40:03.102Z,99578.98
2018-12-24T05:42:32.515Z,99581.38
2018-12-24T05:45:02.173Z,99589.45
2018-12-24T05:47:31.982Z,99595.32
2018-12-24T05:50:01.398Z,99604.91
2018-12-24T05:52:30.898Z,99609.36
2018-12-24T05:55:01.205Z,99610.05
2018-12-24T05:57:30.611Z,99602.78
2018-12-24T06:00:00.172Z,99618.14
2018-12-24T06:02:29.784Z,99624.28
2018-12-24T06:04:59.299Z,99630.77
2018-12-24T06:07:28.710Z,99631.85
2018-12-24T06:09:58.217Z,99619.36
2018-12-24T06:12:27.894Z,99617.34
2018-12-24T06:14:57.310Z,99607.83
2018-12-24T06:17:26.790Z,99620.97
2018-12-24T06:19:56.483Z,99620.64
2018-12-24T06:22:26.006Z,99621.00
2018-12-24T06:24:55.529Z,99624.67
2018-12-24T06:27:25.326Z,99627.19
2018-12-24T06:29:54.849Z,99624.03
2018-12-24T06:32:24.943Z,99616.13
2018-12-24T06:34:54.988Z,99621.66
2018-12-24T06:37:24.552Z,99613.57
2018-12-24T06:39:54.391Z,99613.51
2018-12-24T06:42:24.189Z,99614.58
2018-12-24T06:44:54.119Z,99612.70
2018-12-24T06:47:23.717Z,99604.52
2018-12-24T06:49:53.657Z,99605.06
2018-12-24T06:52:23.196Z,99602.08
2018-12-24T06:54:52.973Z,99601.66
2018-12-24T06:57:22.769Z,99605.02
2018-12-24T06:59:52.193Z,99590.45
2018-12-24T07:02:21.653Z,99588.83
2018-12-24T07:04:51.547Z,99587.74
2018-12-24T07:07:21.031Z,99571.98
2018-12-24T07:09:50.675Z,99574.25
2018-12-24T07:12:20.340Z,99560.73
2018-12-24T07:14:49.787Z,99566.05
2018-12-24T07:17:19.279Z,99562.50
2018-12-24T07:19:49.116Z,99561.29
2018-12-24T07:22:18.617Z,99557.90
2018-12-24T07:24:48.014Z,99554.34
2018-12-24T07:27:17.717Z,99548.09
2018-12-24T07:29:47.223Z,99541.83
2018-12-24T07:32:16.735Z,99534.77
2018-12-24T07:34:46.417Z,99531.44
2018-12-24T07:37:15.852Z,99524.37
2018-12-24T07:39:45.423Z,99516.55
2018-12-24T07:42:15.071Z,99504.47
2018-12-24T07:44:44.458Z,99502.56
2018-12-24T07:47:13.888Z,99495.88
2018-12-24T07:49:43.390Z,99485.09
2018-12-24T07:52:12.794Z,99480.80
2018-12-24T07:54:42.374Z,99483.59
2018-12-24T07:57:12.097Z,99473.28
2018-12-24T07:59:41.500Z,99458.86
2018-12-24T08:02:10.889Z,99447.66
2018-12-24T08:04:40.417Z,99445.55
2018-12-24T08:07:09.884Z,99441.43
2018-12-24T08:09:39.310Z,99440.59
2018-12-24T08:12:08.731Z,99426.72
2018-12-24T08:14:38.211Z,99419.75
2018-12-24T08:17:07.690Z,99416.97
2018-12-24T08:19:37.359Z,99411.13
2018-12-24T08:22:06.859Z,99410.23
2018-12-24T08:24:36.336Z,99400.89
2018-12-24T08:27:06.164Z,99387.72
2018-12-24T08:29:35.550Z,99376.06
2018-12-24T08:32:05.036Z,99372.35
2018-12-24T08:34:34.469Z,99368.77
2018-12-24T08:37:03.903Z,99354.71
2018-12-24T08:39:33.399Z,99351.36
2018-12-24T08:42:03.151Z,99335.45
2018-12-24T08:44:32.668Z,99334.73
2018-12-24T08:47:02.164Z,99324.95
2018-12-24T08:49:32.024Z,99327.46
2018-12-24T08:52:01.486Z,99325.22
2018-12-24T08:54:30.890Z,99315.50
2018-12-24T08:57:00.544Z,99333.18
2018-12-24T08:59:30.076Z,99326.66
2018-12-24T09:01:59.579Z,99325.64
2018-12-24T09:04:29.056Z,99323.09
2018-12-24T09:06:58.460Z,99313.81
2018-12-24T09:09:27.968Z,99315.51
2018-12-24T09:11:58.111Z,99311.41
2018-12-24T09:14:27.619Z,99307.14
2018-12-24T09:16:57.162Z,99315.77
2018-12-24T09:19:27.244Z,99314.34
2018-12-24T09:21:56.636Z,99303.14
2018-12-24T09:24:26.131Z,99294.08
2018-12-24T09:26:55.680Z,99278.52
2018-12-24T09:29:25.100Z,99288.18
2018-12-24T09:31:54.521Z,99281.55
2018-12-24T09:34:24.207Z,99274.84
2018-12-24T09:36:53.733Z,99269.72
2018-12-24T09:39:23.184Z,99271.80
2018-12-24T09:41:52.883Z,99266.95
2018-12-24T09:44:22.381Z,99270.73
2018-12-24T09:46:51.886Z,99252.03
2018-12-24T09:49:21.345Z,99246.92
2018-12-24T09:51:50.809Z,99240.61
2018-12-24T09:54:20.186Z,99224.69
2018-12-24T09:56:49.837Z,99198.25
2018-12-24T09:59:19.324Z,99186.25
2018-12-24T10:01:48.795Z,99171.50
2018-12-24T10:04:43.784Z,99166.63
2018-12-24T10:07:41.418Z,99166.12
2018-12-24T10:10:16.410Z,99148.64
2018-12-24T10:12:45.907Z,99150.61
2018-12-24T10:15:15.398Z,99152.86
2018-12-24T10:17:45.125Z,99133.19
2018-12-24T10:20:14.602Z,99119.89
2018-12-24T10:22:44.080Z,99087.96
2018-12-24T10:25:13.660Z,99073.27
2018-12-24T10:27:43.060Z,99077.94
2018-12-24T10:30:12.542Z,99093.21
2018-12-24T10:32:42.463Z,99091.54
2018-12-24T10:35:11.861Z,99083.03
2018-12-24T10:37:41.369Z,99082.02
2018-12-24T10:40:16.609Z,99072.11
2018-12-24T10:42:46.099Z,99065.56
2018-12-24T10:45:16.740Z,99065.17
2018-12-24T10:47:46.647Z,99055.13
2018-12-24T10:50:16.158Z,99033.27
2018-12-24T10:52:45.700Z,99023.80
2018-12-24T10:55:15.133Z,99024.38
2018-12-24T10:57:44.551Z,99016.97
2018-12-24T11:00:14.078Z,99012.09
2018-12-24T11:02:43.821Z,99017.98
2018-12-24T11:05:13.210Z,99013.80
2018-12-24T11:07:42.653Z,99004.34
2018-12-24T11:10:13.640Z,99001.80
2018-12-24T11:12:43.036Z,99000.76
2018-12-24T11:15:13.823Z,98984.25
2018-12-24T11:17:43.555Z,98973.17
2018-12-24T11:20:12.957Z,98969.70
2018-12-24T11:22:42.369Z,98971.13
2018-12-24T11:25:12.159Z,98958.93
2018-12-24T11:27:41.698Z,98959.70
2018-12-24T11:30:11.121Z,98942.75
2018-12-24T11:32:40.816Z,98939.71
2018-12-24T11:35:10.427Z,98945.55
2018-12-24T11:37:39.995Z,98938.56
2018-12-24T11:40:09.524Z,98928.48
2018-12-24T11:42:39.060Z,98916.28
2018-12-24T11:45:08.661Z,98916.28
2018-12-24T11:47:38.341Z,98915.53
2018-12-24T11:50:07.956Z,98898.27
2018-12-24T11:52:37.462Z,98897.05
2018-12-24T11:55:07.196Z,98880.98
2018-12-24T11:57:36.613Z,98878.34
2018-12-24T12:00:06.668Z,98886.95
2018-12-24T12:02:36.509Z,98879.12
2018-12-24T12:05:06.216Z,98876.48
2018-12-24T12:07:35.631Z,98886.45
2018-12-24T12:10:05.638Z,98870.92
2018-12-24T12:12:35.152Z,98855.66
2018-12-24T12:15:05.055Z,98847.17
2018-12-24T12:17:34.709Z,98854.34
2018-12-24T12:20:04.301Z,98860.06
2018-12-24T12:22:33.792Z,98848.09
2018-12-24T12:25:03.238Z,98852.08
2018-12-24T12:27:32.671Z,98865.47
2018-12-24T12:30:02.137Z,98872.91
2018-12-24T12:32:31.560Z,98860.73
2018-12-24T12:35:01.068Z,98862.73
2018-12-24T12:37:30.564Z,98846.99
2018-12-24T12:40:00.458Z,98857.08
2018-12-24T12:42:29.867Z,98854.14
2018-12-24T12:44:59.365Z,98850.28
2018-12-24T12:47:29.186Z,98849.61
2018-12-24T12:49:58.585Z,98857.16
2018-12-24T12:52:28.005Z,98847.44
2018-12-24T12:54:57.689Z,98845.23
2018-12-24T12:57:27.152Z,98839.16
2018-12-24T12:59:56.651Z,98833.93
2018-12-24T13:02:26.063Z,98840.70
2018-12-24T13:04:55.551Z,98850.20
2018-12-24T13:07:25.321Z,98852.95
2018-12-24T13:09:54.807Z,98853.09
2018-12-24T13:12:24.301Z,98844.80
2018-12-24T13:14:53.697Z,98847.61
2018-12-24T13:17:23.286Z,98843.55
2018-12-24T13:19:52.767Z,98841.49
2018-12-24T13:22:22.247Z,98847.66
2018-12-24T13:24:51.932Z,98837.20
2018-12-24T13:27:21.321Z,98839.96
2018-12-24T13:29:50.808Z,98839.59
2018-12-24T13:32:20.560Z,98839.93
2018-12-24T13:34:49.965Z,98831.44
2018-12-24T13:37:19.377Z,98835.67
2018-12-24T13:39:48.937Z,98822.27
2018-12-24T13:42:18.424Z,98817.77
2018-12-24T13:44:47.814Z,98797.98
2018-12-24T13:47:17.346Z,98800.05
2018-12-24T13:49:46.835Z,98795.55
2018-12-24T13:52:16.261Z,98795.91
2018-12-24T13:54:46.119Z,98811.54
2018-12-24T13:57:15.619Z,98818.88
2018-12-24T13:59:45.042Z,98818.24
2018-12-24T14:02:16.528Z,98813.44
2018-12-24T14:04:45.957Z,98800.72
2018-12-24T14:07:15.452Z,98802.98
2018-12-24T14:09:45.009Z,98806.08
2018-12-24T14:12:14.423Z,98794.41
2018-12-24T14:14:43.907Z,98793.92
2018-12-24T14:17:13.730Z,98794.70
2018-12-24T14:19:43.120Z,98795.17
2018-12-24T14:22:12.514Z,98789.90
2018-12-24T14:24:42.045Z,98801.27
2018-12-24T14:27:11.518Z,98812.17
2018-12-24T14:29:42.107Z,98799.84
2018-12-24T14:32:11.622Z,98790.42
2018-12-24T14:34:41.054Z,98778.02
2018-12-24T14:37:10.456Z,98770.19
2018-12-24T14:39:39.975Z,98766.31
2018-12-24T14:42:09.470Z,98777.08
2018-12-24T14:44:38.902Z,98781.59
2018-12-24T14:47:08.557Z,98758.50
2018-12-24T14:49:38.114Z,98746.17
2018-12-24T14:52:07.801Z,98742.20
2018-12-24T14:54:37.390Z,98731.66
2018-12-24T14:57:06.808Z,98744.45
2018-12-24T14:59:36.398Z,98743.13
2018-12-24T15:02:06.018Z,98743.06
2018-12-24T15:04:35.420Z,98731.25
2018-12-24T15:07:04.838Z,98734.16
2018-12-24T15:09:34.539Z,98717.84
2018-12-24T15:12:03.944Z,98707.31
2018-12-24T15:14:33.501Z,98695.78
2018-12-24T15:17:03.284Z,98700.77
2018-12-24T15:19:32.663Z,98696.88
2018-12-24T15:22:02.071Z,98713.55
2018-12-24T15:24:32.205Z,98712.77
2018-12-24T15:27:01.764Z,98719.08
2018-12-24T15:29:31.179Z,98702.20
2018-12-24T15:32:00.905Z,98697.91
2018-12-24T15:34:30.393Z,98697.97
2018-12-24T15:36:59.878Z,98706.69
2018-12-24T15:39:29.334Z,98709.95
2018-12-24T15:41:58.728Z,98710.48
2018-12-24T15:44:30.579Z,98704.84
2018-12-24T15:47:00.204Z,98694.50
2018-12-24T15:49:29.617Z,98698.69
2018-12-24T15:51:59.045Z,98692.58
2018-12-24T15:54:28.854Z,98695.44
2018-12-24T15:56:58.345Z,98688.67
2018-12-24T15:59:27.747Z,98683.94
2018-12-24T16:01:57.344Z,98694.84
2018-12-24T16:04:26.845Z,98711.48
2018-12-24T16:06:56.388Z,98716.59
2018-12-24T16:09:26.177Z,98717.78
2018-12-24T16:11:55.586Z,98725.58
2018-12-24T16:14:25.131Z,98720.03
2018-12-24T16:16:54.882Z,98719.12
2018-12-24T16:19:24.362Z,98711.41
2018-12-24T16:21:53.794Z,98716.20
2018-12-24T16:24:23.600Z,98724.95
2018-12-24T16:26:53.127Z,98725.80
2018-12-24T16:29:22.552Z,98723.23
2018-12-24T16:31:52.288Z,98716.47
2018-12-24T16:34:21.703Z,98707.91
2018-12-24T16:36:51.113Z,98698.22
2018-12-24T16:39:20.797Z,98689.95
2018-12-24T16:41:50.282Z,98708.47
2018-12-24T16:44:19.708Z,98714.84
2018-12-24T16:46:49.375Z,98710.85
2018-12-24T16:49:18.870Z,98697.28
2018-12-24T16:51:48.346Z,98718.47
2018-12-24T16:54:18.208Z,98725.66
2018-12-24T16:56:47.614Z,98727.34
2018-12-24T16:59:17.134Z,98730.73
2018-12-24T17:01:46.847Z,98734.77
2018-12-24T17:04:16.245Z,98753.37
2018-12-24T17:06:45.816Z,98762.30
2018-12-24T17:09:15.335Z,98775.38
2018-12-24T17:11:44.760Z,98801.54
2018-12-24T17:14:14.241Z,98836.33
2018-12-24T17:16:43.765Z,98863.35
2018-12-24T17:19:13.219Z,98884.86
2018-12-24T17:21:42.725Z,98912.59
2018-12-24T17:24:12.473Z,98952.84
2018-12-24T17:26:41.969Z,98988.54
2018-12-24T17:29:11.362Z,99015.14
2018-12-24T17:31:41.041Z,99061.63
2018-12-24T17:34:10.570Z,99068.09
2018-12-24T17:36:40.128Z,99068.67
2018-12-24T17:39:10.558Z,99072.06
2018-12-24T17:41:40.003Z,99093.99
2018-12-24T17:44:09.932Z,99094.37
2018-12-24T17:46:39.649Z,99087.74
2018-12-24T17:49:09.063Z,99083.27
2018-12-24T17:51:38.543Z,99082.88
2018-12-24T17:54:08.179Z,99082.07
2018-12-24T17:56:37.604Z,99089.27
2018-12-24T17:59:07.112Z,99091.89
2018-12-24T18:01:36.897Z,99087.79
2018-12-24T18:04:06.331Z,99081.61
2018-12-24T18:06:35.776Z,99096.56
2018-12-24T18:09:07.889Z,99089.03
2018-12-24T18:11:37.371Z,99087.83
2018-12-24T18:14:06.771Z,99092.21
2018-12-24T18:16:36.356Z,99102.74
2018-12-24T18:19:05.852Z,99112.17
2018-12-24T18:21:35.328Z,99111.03
2018-12-24T18:24:04.780Z,99116.05
2018-12-24T18:26:34.294Z,99120.83
2018-12-24T18:29:03.780Z,99122.82
2018-12-24T18:31:33.440Z,99125.91
2018-12-24T18:34:02.950Z,99137.20
2018-12-24T18:36:32.414Z,99137.31
2018-12-24T18:39:01.985Z,99132.97
2018-12-24T18:41:31.371Z,99132.62
2018-12-24T18:44:00.885Z,99133.34
2018-12-24T18:46:30.661Z,99130.54
2018-12-24T18:49:00.058Z,99144.09
2018-12-24T18:51:29.458Z,99148.75
2018-12-24T18:53:59.280Z,99147.73
2018-12-24T18:56:28.770Z,99152.53
2018-12-24T18:58:58.165Z,99146.80
2018-12-24T19:01:28.042Z,99149.42
2018-12-24T19:03:57.692Z,99149.60
2018-12-24T19:06:27.209Z,99145.01
2018-12-24T19:08:56.887Z,99148.09
2018-12-24T19:11:26.488Z,99146.97
2018-12-24T19:13:55.890Z,99158.83
2018-12-24T19:16:25.496Z,99148.84
2018-12-24T19:18:54.976Z,99154.20
2018-12-24T19:21:24.486Z,99167.47
2018-12-24T19:23:54.072Z,99172.41
2018-12-24T19:26:23.464Z,99182.66
2018-12-24T19:28:52.966Z,99190.36
2018-12-24T19:31:22.721Z,99194.02
2018-12-24T19:33:52.111Z,99200.27
2018-12-24T19:36:21.526Z,99205.16
2018-12-24T19:38:51.325Z,99223.05
2018-12-24T19:41:20.808Z,99228.28
2018-12-24T19:43:50.198Z,99230.15
2018-12-24T19:46:19.837Z,99232.53
2018-12-24T19:48:49.325Z,99237.25
2018-12-24T19:51:18.750Z,99232.53
2018-12-24T19:53:48.536Z,99237.25
2018-12-24T19:56:18.007Z,99243.16
2018-12-24T19:58:47.386Z,99250.20
2018-12-24T20:01:16.855Z,99253.14
2018-12-24T20:03:46.364Z,99246.55
2018-12-24T20:06:15.831Z,99257.56
2018-12-24T20:08:45.532Z,99261.76
2018-12-24T20:11:14.977Z,99283.22
2018-12-24T20:13:44.477Z,99285.47
2018-12-24T20:16:14.349Z,99282.67
2018-12-24T20:18:43.738Z,99276.00
2018-12-24T20:21:13.152Z,99270.89
2018-12-24T20:23:42.908Z,99270.59
2018-12-24T20:26:12.379Z,99274.46
2018-12-24T20:28:41.799Z,99274.08
2018-12-24T20:31:11.598Z,99281.13
2018-12-24T20:33:41.031Z,99278.58
2018-12-24T20:36:10.439Z,99274.68
2018-12-24T20:38:40.216Z,99266.01
2018-12-24T20:41:09.706Z,99260.74
2018-12-24T20:43:39.249Z,99272.05
2018-12-24T20:46:08.833Z,99288.10
2018-12-24T20:48:38.316Z,99290.44
2018-12-24T20:51:15.927Z,99281.65
2018-12-24T20:53:38.936Z,99284.36
2018-12-24T20:56:08.343Z,99292.52
2018-12-24T20:58:37.918Z,99305.77
2018-12-24T21:01:07.441Z,99313.36
2018-12-24T21:03:36.857Z,99320.38
2018-12-24T21:06:06.352Z,99336.72
2018-12-24T21:08:36.267Z,99353.45
2018-12-24T21:11:05.717Z,99362.83
2018-12-24T21:13:35.136Z,99366.39
2018-12-24T21:16:04.769Z,99369.49
2018-12-24T21:18:34.258Z,99359.63
2018-12-24T21:21:03.739Z,99375.28
2018-12-24T21:23:33.427Z,99373.57
2018-12-24T21:26:02.829Z,99378.84
2018-12-24T21:28:32.364Z,99388.25
2018-12-24T21:31:02.150Z,99373.85
2018-12-24T21:33:31.549Z,99370.45
2018-12-24T21:36:01.033Z,99378.34
2018-12-24T21:38:30.765Z,99373.39
2018-12-24T21:41:00.237Z,99366.88
2018-12-24T21:43:29.728Z,99380.05
2018-12-24T21:45:59.368Z,99374.94
2018-12-24T21:48:28.837Z,99389.56
2018-12-24T21:50:58.250Z,99396.16
2018-12-24T21:53:27.775Z,99403.97
2018-12-24T21:55:57.233Z,99425.96
2018-12-24T21:58:26.629Z,99432.46
2018-12-24T22:00:56.305Z,99440.48
2018-12-24T22:03:25.802Z,99433.66
2018-12-24T22:05:55.289Z,99443.02
2018-12-24T22:08:24.721Z,99452.34
2018-12-24T22:10:54.103Z,99465.05
2018-12-24T22:13:23.593Z,99467.75
2018-12-24T22:15:53.319Z,99458.69
2018-12-24T22:18:22.700Z,99470.99
2018-12-24T22:20:52.093Z,99470.60
2018-12-24T22:23:21.755Z,99462.78
2018-12-24T22:25:51.223Z,99478.19
2018-12-24T22:28:20.621Z,99470.55
2018-12-24T22:30:50.130Z,99486.16
2018-12-24T22:33:19.522Z,99488.05
2018-12-24T22:35:48.922Z,99481.55
2018-12-24T22:38:18.592Z,99485.56
2018-12-24T22:40:48.069Z,99478.21
2018-12-24T22:43:17.519Z,99484.40
2018-12-24T22:45:47.154Z,99484.40
2018-12-24T22:48:16.626Z,99495.88
2018-12-24T22:50:46.117Z,99492.55
2018-12-24T22:53:15.801Z,99494.82
2018-12-24T22:55:45.224Z,99497.34
2018-12-24T22:58:14.769Z,99510.99
2018-12-24T23:00:49.871Z,99516.72
2018-12-24T23:03:19.253Z,99524.22
2018-12-24T23:05:48.646Z,99535.48
2018-12-24T23:08:18.154Z,99536.44
2018-12-24T23:10:47.547Z,99546.29
2018-12-24T23:13:17.130Z,99550.30
2018-12-24T23:15:46.632Z,99544.97
2018-12-24T23:18:16.077Z,99540.95
2018-12-24T23:20:45.476Z,99556.73
2018-12-24T23:23:15.384Z,99571.73
2018-12-24T23:25:44.852Z,99573.44
2018-12-24T23:28:14.225Z,99569.10
2018-12-24T23:30:43.905Z,99563.91
2018-12-24T23:33:13.389Z,99565.36
2018-12-24T23:35:42.853Z,99561.59
2018-12-24T23:38:12.511Z,99553.67
2018-12-24T23:40:41.902Z,99555.48
2018-12-24T23:43:11.430Z,99561.48
2018-12-24T23:45:41.249Z,99563.77
2018-12-24T23:48:10.888Z,99572.31
2018-12-24T23:50:40.263Z,99569.30
2018-12-24T23:53:09.860Z,99569.43
2018-12-24T23:55:39.354Z,99582.19
2018-12-24T23:58:08.739Z,99594.58
